Get Adobe Flash player

РУС

ENG

 
  Pireps - S7
 

Рейс SBIS7 1083

  • Выполнял: Andrew Vyunov
  • Аэропорт отправления: Pulkovo Airport (ULLI)
  • Аэропорт назначения: Domodedovo Airport (UUDD)
  • Тип ВС: A320-214 (VQ-BET)
  • Время полёта: 01.38
  • Дата полёта: 10.10.2018
  • Маршрут: OKUDI B160 DB R369 AJ R804 BG R811 FK UM GISIN BESTA RUGEL GEKLA
  • Статус: Одобрен

Детали полёта
Gross Revenue:
(133 load / $ 900.00 per unit
$ 119,700.00
Fuel Cost:
(4410 fuel used @ 5.1 / unit)
$ 22,491.00


Дополнительная информация о полёте:

Лог

Aircraft Used in flight is Airbus A320-214 CFM Sharklets Airbus house color
16:16 Boarding
16:16 Brakes are On
16:30 Strobe Lights ON at 90 AGL
16:30 Beacon Lights ON at 90 AGL
16:31 Navigation Lights ON at 90 AGL
16:32 Engine 1 Started
16:32 Engine 2 Started
16:32 Brakes are Released
16:33 Taxi Lights ON at 90 AGL
16:40Flaps 5 Selected at 90ft and 8kts
16:40Flaps 4 Selected at 90ft and 10kts
16:42 Landing Lights ON at 90 AGL
16:43 You Took off @ 174 Knots and Flaps at Position 4
Departure Weather
ULLI 101330Z 27005MPS 9999 OVC018 14/10 Q1017 R88/190055 NOSIGrn
16:43 Landing Gear Up @ 166 Knots and 1070 Feet
16:44Flaps 3 Selected at 2580ft and 189kts
16:44Flaps 2 Selected at 3270ft and 193kts
16:44 Landing Lights OFF at 3390 AGL
16:44 Taxi Lights OFF at 3420 AGL
16:44Flaps 1 Selected at 3600ft and 195kts
16:44Flaps Retracted at 4350ft and 203kts
17:41Flaps 1 Selected at 11480ft and 248kts
17:41Flaps 2 Selected at 11300ft and 244kts
17:41Flaps 3 Selected at 11280ft and 244kts
17:45Flaps 5 Selected at 4240ft and 191kts
17:45 Landing Gear Down @ 191 Knots and 4220 Feet
17:47 You exceeded maximum bank angle
17:48 Landing Lights ON at 2770 AGL
17:48 Taxi Lights ON at 2750 AGL
17:53 You Landed @ 172 Knots and with -250 Vertical Speed
Arrival Weather
UUDD 101300Z 25005G10MPS 190V300 CAVOK 14/02 Q1019 R88/010095 NOSIGrn
17:53Flaps Retracted at 600ft and 61kts
17:54 Taxiing to gate
17:54 Brakes are On
17:54 Engine 1 Stoped
17:54 Engine 2 Stoped
17:54 Landing Lights OFF at 600 AGL
Pirep logged with S7 Tracking 1.0.0.13


!!! Превышение допустимого значения вертикальной скорости при посадке: -5%


Общая оценка полета : 95%




Route Map



 
 
   
 
News

26.04.2018 - Flights in X-PLANE

Our client supports by S7 Pad flights as in MFSX, Prepar3d V4, and in X-PLANE 10 and 11 versions!
On our website in the category of a zagruka there is a plug-in of XPUIPIC for X-plane.
Flights pleasant to you and soft landings!

   
 
Authorization






Registration

Recover the password?

We in social nets

      



   
  TeamSpeak3 ts.va-s7.ru


   
 

   
 



   
 


Яндекс.Метрика

www.va-s7.ru 2011-2018
All rights reserved.



Minute of attention!
We have no relation to trademarks "S7" and "Globus" and to their representatives.
Emblems on the website are property of the relevant companies.

air navigation meteorological and any other information from this resource shouldnt be used for real flights at all.